Погода:Россия/Ленинградская область/Санкт-Петербург/Источники/OpenWeatherMap/1

Материал из Онлайн справочника
Перейти к навигации Перейти к поиску

Перевод: Максим Кузьмин (Cubewriter) Контакты:</br>* Skype: cubewriter</br>* E-mail: cubewriter@gmail.com</br>* Максим Кузьмин на freelance.ru
Проверка/Оформление/Редактирование: Мякишев Е.А.


Данные[1]

 ВремяТемператураЭто свойство относится к числу специальных свойств данного вики-сайта.Максимальная температура на данный моментМинимальная температура на данный моментСкорость ветраПасмурностьВлажностьАтмосферное давление относительно уровня моряМетеорологическое направление ветраОписание погодного условия
Россия/Ленинградская область/Санкт-Петербург/Источники/OpenWeatherMap/1/28399680022 сентября 772844 12:00:00-22,47 °C250,68 K <br />-8,446 °F <br />451,224 °R <br />-20,36 °C252,79 K <br />-4,648 °F <br />455,022 °R <br />-24,67 °C248,48 K <br />-12,406 °F <br />447,264 °R <br />4,67 м/с99 %84 %1013 гПа229 градус(градусов)Сплошная облачность: 85-100%
Россия/Ленинградская область/Санкт-Петербург/Источники/OpenWeatherMap/1/2840004001 августа 772854 12:00:00-22,73 °C250,42 K <br />-8,914 °F <br />450,756 °R <br />-20,69 °C252,46 K <br />-5,242 °F <br />454,428 °R <br />-24,86 °C248,29 K <br />-12,748 °F <br />446,922 °R <br />4,35 м/с99 %83 %1013 гПа228 градус(градусов)Сплошная облачность: 85-100%
Россия/Ленинградская область/Санкт-Петербург/Источники/OpenWeatherMap/1/2840040009 июня 772864 12:00:00-22,73 °C250,42 K <br />-8,914 °F <br />450,756 °R <br />-20,71 °C252,44 K <br />-5,278 °F <br />454,392 °R <br />-24,89 °C248,26 K <br />-12,802 °F <br />446,868 °R <br />3,98 м/с100 %83 %1012 гПа226 градус(градусов)Сплошная облачность: 85-100%
Россия/Ленинградская область/Санкт-Петербург/Источники/OpenWeatherMap/1/28400760018 апреля 772874 12:00:00-22,79 °C250,36 K <br />-9,022 °F <br />450,648 °R <br />-20,87 °C252,28 K <br />-5,566 °F <br />454,104 °R <br />-24,74 °C248,41 K <br />-12,532 °F <br />447,138 °R <br />3,64 м/с99 %83 %1012 гПа221 градус(градусов)Сплошная облачность: 85-100%
Россия/Ленинградская область/Санкт-Петербург/Источники/OpenWeatherMap/1/28401120025 февраля 772884 12:00:00-23,02 °C250,13 K <br />-9,436 °F <br />450,234 °R <br />-21,02 °C252,13 K <br />-5,836 °F <br />453,834 °R <br />-25,05 °C248,1 K <br />-13,09 °F <br />446,58 °R <br />3,51 м/с100 %83 %1012 гПа215 градус(градусов)Сплошная облачность: 85-100%
Россия/Ленинградская область/Санкт-Петербург/Источники/OpenWeatherMap/1/2840148003 января 772894 12:00:00-23,28 °C249,87 K <br />-9,904 °F <br />449,766 °R <br />-21,19 °C251,96 K <br />-6,142 °F <br />453,528 °R <br />-25,42 °C247,73 K <br />-13,756 °F <br />445,914 °R <br />3,37 м/с99 %83 %1013 гПа211 градус(градусов)Сплошная облачность: 85-100%
Россия/Ленинградская область/Санкт-Петербург/Источники/OpenWeatherMap/1/28401840013 ноября 772903 12:00:00-23,78 °C249,37 K <br />-10,804 °F <br />448,866 °R <br />-21,7 °C251,45 K <br />-7,06 °F <br />452,61 °R <br />-25,9 °C247,25 K <br />-14,62 °F <br />445,05 °R <br />3,18 м/с100 %83 %1013 гПа207 градус(градусов)Сплошная облачность: 85-100%
Россия/Ленинградская область/Санкт-Петербург/Источники/OpenWeatherMap/1/28402200021 сентября 772913 12:00:00-24,28 °C248,87 K <br />-11,704 °F <br />447,966 °R <br />-22,16 °C250,99 K <br />-7,888 °F <br />451,782 °R <br />-26,41 °C246,74 K <br />-15,538 °F <br />444,132 °R <br />2,99 м/с100 %82 %1013 гПа202 градус(градусов)Сплошная облачность: 85-100%
Россия/Ленинградская область/Санкт-Петербург/Источники/OpenWeatherMap/1/28402560031 июля 772923 12:00:00-24,8 °C248,35 K <br />-12,64 °F <br />447,03 °R <br />-22,71 °C250,44 K <br />-8,878 °F <br />450,792 °R <br />-26,86 °C246,29 K <br />-16,348 °F <br />443,322 °R <br />3,05 м/с99 %82 %1013 гПа198 градус(градусов)Сплошная облачность: 85-100%
Россия/Ленинградская область/Санкт-Петербург/Источники/OpenWeatherMap/1/2840292008 июня 772933 12:00:00-24,07 °C249,08 K <br />-11,326 °F <br />448,344 °R <br />-22,33 °C250,82 K <br />-8,194 °F <br />451,476 °R <br />-25,86 °C247,29 K <br />-14,548 °F <br />445,122 °R <br />2,93 м/с98 %81 %1013 гПа200 градус(градусов)Сплошная облачность: 85-100%
Россия/Ленинградская область/Санкт-Петербург/Источники/OpenWeatherMap/1/28403280017 апреля 772943 12:00:00-23,54 °C249,61 K <br />-10,372 °F <br />449,298 °R <br />-22,1 °C251,05 K <br />-7,78 °F <br />451,89 °R <br />-25,1 °C248,05 K <br />-13,18 °F <br />446,49 °R <br />1,98 м/с100 %83 %1013 гПа201 градус(градусов)Сплошная облачность: 85-100%
Россия/Ленинградская область/Санкт-Петербург/Источники/OpenWeatherMap/1/28403640023 февраля 772953 12:00:00-23,58 °C249,57 K <br />-10,444 °F <br />449,226 °R <br />-22,03 °C251,12 K <br />-7,654 °F <br />452,016 °R <br />-25,18 °C247,97 K <br />-13,324 °F <br />446,346 °R <br />1,36 м/с97 %82 %1014 гПа184 градус(градусов)Сплошная облачность: 85-100%
Россия/Ленинградская область/Санкт-Петербург/Источники/OpenWeatherMap/1/2840400002 января 772963 12:00:00-24,28 °C248,87 K <br />-11,704 °F <br />447,966 °R <br />-22,6 °C250,55 K <br />-8,68 °F <br />450,99 °R <br />-25,92 °C247,23 K <br />-14,656 °F <br />445,014 °R <br />1,63 м/с82 %82 %1014 гПа155 градус(градусов)Повышенная облачность: 51-84%
Россия/Ленинградская область/Санкт-Петербург/Источники/OpenWeatherMap/1/28404360010 ноября 772972 12:00:00-24,41 °C248,74 K <br />-11,938 °F <br />447,732 °R <br />-22,63 °C250,52 K <br />-8,734 °F <br />450,936 °R <br />-26,18 °C246,97 K <br />-15,124 °F <br />444,546 °R <br />1,99 м/с71 %82 %1015 гПа145 градус(градусов)Повышенная облачность: 51-84%
Россия/Ленинградская область/Санкт-Петербург/Источники/OpenWeatherMap/1/28404720019 сентября 772982 12:00:00-24,74 °C248,41 K <br />-12,532 °F <br />447,138 °R <br />-22,89 °C250,26 K <br />-9,202 °F <br />450,468 °R <br />-26,56 °C246,59 K <br />-15,808 °F <br />443,862 °R <br />2,13 м/с72 %82 %1015 гПа138 градус(градусов)Повышенная облачность: 51-84%
Россия/Ленинградская область/Санкт-Петербург/Источники/OpenWeatherMap/1/28405080028 июля 772992 12:00:00-27,01 °C246,14 K <br />-16,618 °F <br />443,052 °R <br />-24,93 °C248,22 K <br />-12,874 °F <br />446,796 °R <br />-28,75 °C244,4 K <br />-19,75 °F <br />439,92 °R <br />2,23 м/с71 %80 %1015 гПа135 градус(градусов)Повышенная облачность: 51-84%
Россия/Ленинградская область/Санкт-Петербург/Источники/OpenWeatherMap/1/2840544007 июня 773002 12:00:00-27,19 °C245,96 K <br />-16,942 °F <br />442,728 °R <br />-25,18 °C247,97 K <br />-13,324 °F <br />446,346 °R <br />-28,86 °C244,29 K <br />-19,948 °F <br />439,722 °R <br />2,29 м/с71 %80 %1015 гПа129 градус(градусов)Повышенная облачность: 51-84%
Россия/Ленинградская область/Санкт-Петербург/Источники/OpenWeatherMap/1/28405800015 апреля 773012 12:00:00-27,84 °C245,31 K <br />-18,112 °F <br />441,558 °R <br />-25,86 °C247,29 K <br />-14,548 °F <br />445,122 °R <br />-29,52 °C243,63 K <br />-21,136 °F <br />438,534 °R <br />2,04 м/с69 %81 %1015 гПа121 градус(градусов)Повышенная облачность: 51-84%
Россия/Ленинградская область/Санкт-Петербург/Источники/OpenWeatherMap/1/28406160022 февраля 773022 12:00:00-28,3 °C244,85 K <br />-18,94 °F <br />440,73 °R <br />-26,29 °C246,86 K <br />-15,322 °F <br />444,348 °R <br />-29,94 °C243,21 K <br />-21,892 °F <br />437,778 °R <br />1,9 м/с71 %80 %1016 гПа102 градус(градусов)Повышенная облачность: 51-84%
Россия/Ленинградская область/Санкт-Петербург/Источники/OpenWeatherMap/1/2840652001 января 773032 12:00:00-28,57 °C244,58 K <br />-19,426 °F <br />440,244 °R <br />-26,43 °C246,72 K <br />-15,574 °F <br />444,096 °R <br />-30,3 °C242,85 K <br />-22,54 °F <br />437,13 °R <br />2,15 м/с89 %80 %1016 гПа89 градус(градусов)Сплошная облачность: 85-100%
Россия/Ленинградская область/Санкт-Петербург/Источники/OpenWeatherMap/1/2840688009 ноября 773041 12:00:00-28,7 °C244,45 K <br />-19,66 °F <br />440,01 °R <br />-26,58 °C246,57 K <br />-15,844 °F <br />443,826 °R <br />-30,42 °C242,73 K <br />-22,756 °F <br />436,914 °R <br />2,3 м/с94 %80 %1016 гПа96 градус(градусов)Сплошная облачность: 85-100%
Россия/Ленинградская область/Санкт-Петербург/Источники/OpenWeatherMap/1/28407240018 сентября 773051 12:00:00-26,65 °C246,5 K <br />-15,97 °F <br />443,7 °R <br />-24,98 °C248,17 K <br />-12,964 °F <br />446,706 °R <br />-28,25 °C244,9 K <br />-18,85 °F <br />440,82 °R <br />2,42 м/с97 %78 %1017 гПа102 градус(градусов)Сплошная облачность: 85-100%
Россия/Ленинградская область/Санкт-Петербург/Источники/OpenWeatherMap/1/28407600027 июля 773061 12:00:00-29,58 °C243,57 K <br />-21,244 °F <br />438,426 °R <br />-27,69 °C245,46 K <br />-17,842 °F <br />441,828 °R <br />-31,09 °C242,06 K <br />-23,962 °F <br />435,708 °R <br />2,81 м/с99 %77 %1017 гПа88 градус(градусов)Сплошная облачность: 85-100%
Россия/Ленинградская область/Санкт-Петербург/Источники/OpenWeatherMap/1/2840796005 июня 773071 12:00:00-29,61 °C243,54 K <br />-21,298 °F <br />438,372 °R <br />-27,74 °C245,41 K <br />-17,932 °F <br />441,738 °R <br />-31,16 °C241,99 K <br />-24,088 °F <br />435,582 °R <br />3,36 м/с99 %77 %1017 гПа78 градус(градусов)Сплошная облачность: 85-100%
Россия/Ленинградская область/Санкт-Петербург/Источники/OpenWeatherMap/1/28408320013 апреля 773081 12:00:00-29,3 °C243,85 K <br />-20,74 °F <br />438,93 °R <br />-27,42 °C245,73 K <br />-17,356 °F <br />442,314 °R <br />-30,88 °C242,27 K <br />-23,584 °F <br />436,086 °R <br />3,75 м/с97 %77 %1017 гПа74 градус(градусов)Сплошная облачность: 85-100%
Россия/Ленинградская область/Санкт-Петербург/Источники/OpenWeatherMap/1/28408680020 февраля 773091 12:00:00-29,14 °C244,01 K <br />-20,452 °F <br />439,218 °R <br />-27,26 °C245,89 K <br />-17,068 °F <br />442,602 °R <br />-30,68 °C242,47 K <br />-23,224 °F <br />436,446 °R <br />4,1 м/с99 %77 %1017 гПа74 градус(градусов)Сплошная облачность: 85-100%
Россия/Ленинградская область/Санкт-Петербург/Источники/OpenWeatherMap/1/28409040030 декабря 773100 12:00:00-28,64 °C244,51 K <br />-19,552 °F <br />440,118 °R <br />-26,89 °C246,26 K <br />-16,402 °F <br />443,268 °R <br />-29,97 °C243,18 K <br />-21,946 °F <br />437,724 °R <br />4,06 м/с100 %77 %1017 гПа76 градус(градусов)Сплошная облачность: 85-100%
Россия/Ленинградская область/Санкт-Петербург/Источники/OpenWeatherMap/1/2840940008 ноября 773110 12:00:00-26,12 °C247,03 K <br />-15,016 °F <br />444,654 °R <br />-25,02 °C248,13 K <br />-13,036 °F <br />446,634 °R <br />-27,03 °C246,12 K <br />-16,654 °F <br />443,016 °R <br />4,11 м/с100 %78 %1017 гПа78 градус(градусов)Сплошная облачность: 85-100%
Россия/Ленинградская область/Санкт-Петербург/Источники/OpenWeatherMap/1/28409760016 сентября 773120 12:00:00-26,06 °C247,09 K <br />-14,908 °F <br />444,762 °R <br />-25,04 °C248,11 K <br />-13,072 °F <br />446,598 °R <br />-26,81 °C246,34 K <br />-16,258 °F <br />443,412 °R <br />4,18 м/с99 %77 %1017 гПа79 градус(градусов)Сплошная облачность: 85-100%
Россия/Ленинградская область/Санкт-Петербург/Источники/OpenWeatherMap/1/28410120026 июля 773130 12:00:00-25,95 °C247,2 K <br />-14,71 °F <br />444,96 °R <br />-25,07 °C248,08 K <br />-13,126 °F <br />446,544 °R <br />-26,5 °C246,65 K <br />-15,7 °F <br />443,97 °R <br />4,31 м/с100 %76 %1017 гПа77 градус(градусов)Сплошная облачность: 85-100%
Россия/Ленинградская область/Санкт-Петербург/Источники/OpenWeatherMap/1/2841048003 июня 773140 12:00:00-25,62 °C247,53 K <br />-14,116 °F <br />445,554 °R <br />-24,81 °C248,34 K <br />-12,658 °F <br />447,012 °R <br />-26,05 °C247,1 K <br />-14,89 °F <br />444,78 °R <br />4,57 м/с100 %75 %1017 гПа75 градус(градусов)Сплошная облачность: 85-100%
Россия/Ленинградская область/Санкт-Петербург/Источники/OpenWeatherMap/1/28410840012 апреля 773150 12:00:00-25,4 °C247,75 K <br />-13,72 °F <br />445,95 °R <br />-24,71 °C248,44 K <br />-12,478 °F <br />447,192 °R <br />-25,71 °C247,44 K <br />-14,278 °F <br />445,392 °R <br />4,65 м/с100 %74 %1016 гПа79 градус(градусов)Сплошная облачность: 85-100%
Россия/Ленинградская область/Санкт-Петербург/Источники/OpenWeatherMap/1/28411200019 февраля 773160 12:00:00-25,21 °C247,94 K <br />-13,378 °F <br />446,292 °R <br />-24,66 °C248,49 K <br />-12,388 °F <br />447,282 °R <br />-25,67 °C247,48 K <br />-14,206 °F <br />445,464 °R <br />4,65 м/с100 %74 %1016 гПа83 градус(градусов)Сплошная облачность: 85-100%
Россия/Ленинградская область/Санкт-Петербург/Источники/OpenWeatherMap/1/28411560028 декабря 773169 12:00:00-23,23 °C249,92 K <br />-9,814 °F <br />449,856 °R <br />-23 °C250,15 K <br />-9,4 °F <br />450,27 °R <br />-23,47 °C249,68 K <br />-10,246 °F <br />449,424 °R <br />4,57 м/с100 %69 %1016 гПа84 градус(градусов)Сплошная облачность: 85-100%
Россия/Ленинградская область/Санкт-Петербург/Источники/OpenWeatherMap/1/2841192006 ноября 773179 12:00:00-21,12 °C252,03 K <br />-6,016 °F <br />453,654 °R <br />-20,67 °C252,48 K <br />-5,206 °F <br />454,464 °R <br />-21,45 °C251,7 K <br />-6,61 °F <br />453,06 °R <br />4,83 м/с100 %70 %1015 гПа74 градус(градусов)Сплошная облачность: 85-100%
Россия/Ленинградская область/Санкт-Петербург/Источники/OpenWeatherMap/1/28412280014 сентября 773189 12:00:00-20,62 °C252,53 K <br />-5,116 °F <br />454,554 °R <br />-20,17 °C252,98 K <br />-4,306 °F <br />455,364 °R <br />-20,96 °C252,19 K <br />-5,728 °F <br />453,942 °R <br />5,13 м/с100 %69 %1015 гПа71 градус(градусов)Сплошная облачность: 85-100%
Россия/Ленинградская область/Санкт-Петербург/Источники/OpenWeatherMap/1/28412640024 июля 773199 12:00:00-19,78 °C253,37 K <br />-3,604 °F <br />456,066 °R <br />-19,33 °C253,82 K <br />-2,794 °F <br />456,876 °R <br />-20,11 °C253,04 K <br />-4,198 °F <br />455,472 °R <br />5,4 м/с100 %71 %1014 гПа71 градус(градусов)Сплошная облачность: 85-100%
Россия/Ленинградская область/Санкт-Петербург/Источники/OpenWeatherMap/1/2841300001 июня 773209 12:00:00-19,59 °C253,56 K <br />-3,262 °F <br />456,408 °R <br />-19,17 °C253,98 K <br />-2,506 °F <br />457,164 °R <br />-19,89 °C253,26 K <br />-3,802 °F <br />455,868 °R <br />5,58 м/с100 %72 %1014 гПа70 градус(градусов)Сплошная облачность: 85-100%
Россия/Ленинградская область/Санкт-Петербург/Источники/OpenWeatherMap/1/28413360010 апреля 773219 12:00:00-19,42 °C253,73 K <br />-2,956 °F <br />456,714 °R <br />-19,05 °C254,1 K <br />-2,29 °F <br />457,38 °R <br />-19,69 °C253,46 K <br />-3,442 °F <br />456,228 °R <br />5,67 м/с100 %73 %1013 гПа70 градус(градусов)Сплошная облачность: 85-100%
Россия/Ленинградская область/Санкт-Петербург/Источники/OpenWeatherMap/1/28413720016 февраля 773229 12:00:00-19,04 °C254,11 K <br />-2,272 °F <br />457,398 °R <br />-18,67 °C254,48 K <br />-1,606 °F <br />458,064 °R <br />-19,36 °C253,79 K <br />-2,848 °F <br />456,822 °R <br />5,88 м/с100 %74 %1014 гПа70 градус(градусов)Сплошная облачность: 85-100%
Россия/Ленинградская область/Санкт-Петербург/Источники/OpenWeatherMap/1/28414080026 декабря 773238 12:00:00-18,96 °C254,19 K <br />-2,128 °F <br />457,542 °R <br />-18,61 °C254,54 K <br />-1,498 °F <br />458,172 °R <br />-19,25 °C253,9 K <br />-2,65 °F <br />457,02 °R <br />5,98 м/с100 %75 %1013 гПа70 градус(градусов)Сплошная облачность: 85-100%
Россия/Ленинградская область/Санкт-Петербург/Источники/OpenWeatherMap/1/2841444003 ноября 773248 12:00:00-18,91 °C254,24 K <br />-2,038 °F <br />457,632 °R <br />-18,62 °C254,53 K <br />-1,516 °F <br />458,154 °R <br />-19,15 °C254 K <br />-2,47 °F <br />457,2 °R <br />5,83 м/с100 %76 %1013 гПа71 градус(градусов)Сплошная облачность: 85-100%
Россия/Ленинградская область/Санкт-Петербург/Источники/OpenWeatherMap/1/28414800012 сентября 773258 12:00:00-19,15 °C254 K <br />-2,47 °F <br />457,2 °R <br />-18,88 °C254,27 K <br />-1,984 °F <br />457,686 °R <br />-19,36 °C253,79 K <br />-2,848 °F <br />456,822 °R <br />5,51 м/с100 %75 %1013 гПа75 градус(градусов)Сплошная облачность: 85-100%
Россия/Ленинградская область/Санкт-Петербург/Источники/OpenWeatherMap/1/28415160021 июля 773268 12:00:00-19,06 °C254,09 K <br />-2,308 °F <br />457,362 °R <br />-18,84 °C254,31 K <br />-1,912 °F <br />457,758 °R <br />-19,23 °C253,92 K <br />-2,614 °F <br />457,056 °R <br />5,26 м/с99 %76 %1013 гПа76 градус(градусов)Сплошная облачность: 85-100%
Россия/Ленинградская область/Санкт-Петербург/Источники/OpenWeatherMap/1/28415520030 мая 773278 12:00:00-19,01 °C254,14 K <br />-2,218 °F <br />457,452 °R <br />-18,87 °C254,28 K <br />-1,966 °F <br />457,704 °R <br />-19,14 °C254,01 K <br />-2,452 °F <br />457,218 °R <br />5,53 м/с100 %76 %1013 гПа78 градус(градусов)Легкий снег
Россия/Ленинградская область/Санкт-Петербург/Источники/OpenWeatherMap/1/2841588007 апреля 773288 12:00:00-19,81 °C253,34 K <br />-3,658 °F <br />456,012 °R <br />-19,58 °C253,57 K <br />-3,244 °F <br />456,426 °R <br />-19,97 °C253,18 K <br />-3,946 °F <br />455,724 °R <br />5,54 м/с100 %76 %1013 гПа78 градус(градусов)Легкий снег
Россия/Ленинградская область/Санкт-Петербург/Источники/OpenWeatherMap/1/28416240014 февраля 773298 12:00:00-18,21 °C254,94 K <br />-0,778 °F <br />458,892 °R <br />-18,08 °C255,07 K <br />-0,544 °F <br />459,126 °R <br />-18,3 °C254,85 K <br />-0,94 °F <br />458,73 °R <br />5,11 м/с99 %78 %1013 гПа77 градус(градусов)Сплошная облачность: 85-100%
Россия/Ленинградская область/Санкт-Петербург/Источники/OpenWeatherMap/1/28416600025 декабря 773307 12:00:00-18,2 °C254,95 K <br />-0,76 °F <br />458,91 °R <br />-18,12 °C255,03 K <br />-0,616 °F <br />459,054 °R <br />-18,27 °C254,88 K <br />-0,886 °F <br />458,784 °R <br />5,14 м/с100 %79 %1013 гПа80 градус(градусов)Сплошная облачность: 85-100%
Россия/Ленинградская область/Санкт-Петербург/Источники/OpenWeatherMap/1/2841696002 ноября 773317 12:00:00-18,22 °C254,93 K <br />-0,796 °F <br />458,874 °R <br />-18,17 °C254,98 K <br />-0,706 °F <br />458,964 °R <br />-18,24 °C254,91 K <br />-0,832 °F <br />458,838 °R <br />5,05 м/с100 %79 %1012 гПа76 градус(градусов)Легкий снег
Россия/Ленинградская область/Санкт-Петербург/Источники/OpenWeatherMap/1/28417320011 сентября 773327 12:00:00-18,18 °C254,97 K <br />-0,724 °F <br />458,946 °R <br />-18,14 °C255,01 K <br />-0,652 °F <br />459,018 °R <br />-18,19 °C254,96 K <br />-0,742 °F <br />458,928 °R <br />5,15 м/с100 %80 %1012 гПа77 градус(градусов)Легкий снег
… следующие результаты

См.также

Внешние ссылки